sim
Sign-in with your pilot id or email,
or register
Callsign
Passwort

Schedule Details

Flight Number: OEO6157
Departure: Philadelphia International Airport (KPHL) at 22:30
Arrival: Munich Airport (EDDM) at 06:45

Weather Information
Getting current METAR information for KPHL 221254Z 00000KT 10SM FEW300 13/03 A3023 RMK AO2 SLP237 T01280033 $
Getting current METAR information for EDDM 221250Z 05004KT 010V140 9999 FEW038 24/14 Q1012 NOSIG

Schedule Frequency

Route Map